sensor_id;sensor_type;location;lat;lon;timestamp;P1;durP1;ratioP1;P2;durP2;ratioP2
83807;SDS011;73824;40.292;17.998;2023-12-20T00:00:16;85.70;;;46.53;;
83807;SDS011;73824;40.292;17.998;2023-12-20T00:02:42;77.53;;;43.33;;
83807;SDS011;73824;40.292;17.998;2023-12-20T00:05:12;92.23;;;46.67;;
83807;SDS011;73824;40.292;17.998;2023-12-20T00:07:38;87.88;;;48.55;;
83807;SDS011;73824;40.292;17.998;2023-12-20T00:10:04;87.85;;;47.65;;
83807;SDS011;73824;40.292;17.998;2023-12-20T00:12:29;87.67;;;45.40;;
83807;SDS011;73824;40.292;17.998;2023-12-20T00:14:55;87.18;;;44.80;;
83807;SDS011;73824;40.292;17.998;2023-12-20T00:17:20;90.35;;;47.30;;
83807;SDS011;73824;40.292;17.998;2023-12-20T00:19:46;90.97;;;46.10;;
83807;SDS011;73824;40.292;17.998;2023-12-20T00:22:11;85.87;;;46.13;;
83807;SDS011;73824;40.292;17.998;2023-12-20T00:24:37;84.68;;;44.63;;
83807;SDS011;73824;40.292;17.998;2023-12-20T00:27:02;73.53;;;42.13;;
83807;SDS011;73824;40.292;17.998;2023-12-20T00:29:28;73.67;;;40.97;;
83807;SDS011;73824;40.292;17.998;2023-12-20T00:31:53;75.97;;;41.73;;
83807;SDS011;73824;40.292;17.998;2023-12-20T00:34:19;77.18;;;41.65;;
83807;SDS011;73824;40.292;17.998;2023-12-20T00:36:44;69.57;;;41.17;;
83807;SDS011;73824;40.292;17.998;2023-12-20T00:39:10;75.80;;;42.13;;
83807;SDS011;73824;40.292;17.998;2023-12-20T00:41:35;82.70;;;44.70;;
83807;SDS011;73824;40.292;17.998;2023-12-20T00:44:01;78.20;;;44.97;;
83807;SDS011;73824;40.292;17.998;2023-12-20T00:46:26;80.00;;;44.80;;
83807;SDS011;73824;40.292;17.998;2023-12-20T00:48:52;80.00;;;45.10;;
83807;SDS011;73824;40.292;17.998;2023-12-20T00:51:17;71.90;;;41.95;;
83807;SDS011;73824;40.292;17.998;2023-12-20T00:53:43;68.93;;;40.43;;
83807;SDS011;73824;40.292;17.998;2023-12-20T00:56:08;71.50;;;40.60;;
83807;SDS011;73824;40.292;17.998;2023-12-20T00:58:37;72.70;;;40.10;;
83807;SDS011;73824;40.292;17.998;2023-12-20T01:01:02;72.13;;;40.73;;
83807;SDS011;73824;40.292;17.998;2023-12-20T01:03:28;75.35;;;41.20;;
83807;SDS011;73824;40.292;17.998;2023-12-20T01:05:54;75.30;;;40.85;;
83807;SDS011;73824;40.292;17.998;2023-12-20T01:08:19;72.40;;;38.63;;
83807;SDS011;73824;40.292;17.998;2023-12-20T01:10:45;73.68;;;41.70;;
83807;SDS011;73824;40.292;17.998;2023-12-20T01:13:11;80.20;;;41.00;;
83807;SDS011;73824;40.292;17.998;2023-12-20T01:15:37;79.30;;;42.47;;
83807;SDS011;73824;40.292;17.998;2023-12-20T01:18:03;91.30;;;45.57;;
83807;SDS011;73824;40.292;17.998;2023-12-20T01:20:28;80.88;;;42.13;;
83807;SDS011;73824;40.292;17.998;2023-12-20T01:22:54;88.97;;;44.27;;
83807;SDS011;73824;40.292;17.998;2023-12-20T01:25:19;83.77;;;42.27;;
83807;SDS011;73824;40.292;17.998;2023-12-20T01:27:45;80.20;;;41.97;;
83807;SDS011;73824;40.292;17.998;2023-12-20T01:30:10;75.85;;;40.30;;
83807;SDS011;73824;40.292;17.998;2023-12-20T01:32:36;77.50;;;40.90;;
83807;SDS011;73824;40.292;17.998;2023-12-20T01:35:01;80.63;;;40.90;;
83807;SDS011;73824;40.292;17.998;2023-12-20T01:37:27;82.25;;;40.83;;
83807;SDS011;73824;40.292;17.998;2023-12-20T01:39:54;80.40;;;42.05;;
83807;SDS011;73824;40.292;17.998;2023-12-20T01:42:19;81.37;;;41.87;;
83807;SDS011;73824;40.292;17.998;2023-12-20T01:44:45;76.63;;;40.30;;
83807;SDS011;73824;40.292;17.998;2023-12-20T01:47:10;73.70;;;39.15;;
83807;SDS011;73824;40.292;17.998;2023-12-20T01:49:36;73.77;;;39.47;;
83807;SDS011;73824;40.292;17.998;2023-12-20T01:52:02;79.30;;;41.50;;
83807;SDS011;73824;40.292;17.998;2023-12-20T01:54:28;76.10;;;40.50;;
83807;SDS011;73824;40.292;17.998;2023-12-20T01:56:54;84.72;;;42.33;;
83807;SDS011;73824;40.292;17.998;2023-12-20T01:59:19;76.77;;;40.50;;
83807;SDS011;73824;40.292;17.998;2023-12-20T02:01:46;83.45;;;42.70;;
83807;SDS011;73824;40.292;17.998;2023-12-20T02:04:11;77.60;;;40.85;;
83807;SDS011;73824;40.292;17.998;2023-12-20T02:06:37;85.65;;;42.53;;
83807;SDS011;73824;40.292;17.998;2023-12-20T02:09:05;77.05;;;40.28;;
83807;SDS011;73824;40.292;17.998;2023-12-20T02:11:32;77.17;;;42.37;;
83807;SDS011;73824;40.292;17.998;2023-12-20T02:13:58;75.13;;;39.50;;
83807;SDS011;73824;40.292;17.998;2023-12-20T02:16:23;72.22;;;39.47;;
83807;SDS011;73824;40.292;17.998;2023-12-20T02:18:49;70.57;;;37.60;;
83807;SDS011;73824;40.292;17.998;2023-12-20T02:21:15;74.20;;;38.97;;
83807;SDS011;73824;40.292;17.998;2023-12-20T02:23:40;78.78;;;41.65;;
83807;SDS011;73824;40.292;17.998;2023-12-20T02:26:06;78.23;;;43.97;;
83807;SDS011;73824;40.292;17.998;2023-12-20T02:28:32;77.07;;;41.42;;
83807;SDS011;73824;40.292;17.998;2023-12-20T02:30:58;73.30;;;40.67;;
83807;SDS011;73824;40.292;17.998;2023-12-20T02:33:23;71.60;;;38.60;;
83807;SDS011;73824;40.292;17.998;2023-12-20T02:35:49;69.37;;;38.20;;
83807;SDS011;73824;40.292;17.998;2023-12-20T02:38:15;76.03;;;39.05;;
83807;SDS011;73824;40.292;17.998;2023-12-20T02:40:40;65.63;;;36.47;;
83807;SDS011;73824;40.292;17.998;2023-12-20T02:43:06;63.53;;;34.93;;
83807;SDS011;73824;40.292;17.998;2023-12-20T02:45:31;69.10;;;35.97;;
83807;SDS011;73824;40.292;17.998;2023-12-20T02:47:57;65.90;;;33.20;;
83807;SDS011;73824;40.292;17.998;2023-12-20T02:50:22;64.47;;;33.60;;
83807;SDS011;73824;40.292;17.998;2023-12-20T02:52:48;66.40;;;34.67;;
83807;SDS011;73824;40.292;17.998;2023-12-20T02:55:13;63.30;;;34.28;;
83807;SDS011;73824;40.292;17.998;2023-12-20T02:57:39;63.07;;;33.37;;
83807;SDS011;73824;40.292;17.998;2023-12-20T03:00:08;62.75;;;33.70;;
83807;SDS011;73824;40.292;17.998;2023-12-20T03:02:35;62.88;;;33.22;;
83807;SDS011;73824;40.292;17.998;2023-12-20T03:05:01;61.10;;;30.57;;
83807;SDS011;73824;40.292;17.998;2023-12-20T03:07:27;61.92;;;31.25;;
83807;SDS011;73824;40.292;17.998;2023-12-20T03:09:52;58.47;;;31.63;;
83807;SDS011;73824;40.292;17.998;2023-12-20T03:12:18;60.33;;;31.10;;
83807;SDS011;73824;40.292;17.998;2023-12-20T03:14:43;65.15;;;33.35;;
83807;SDS011;73824;40.292;17.998;2023-12-20T03:17:09;60.97;;;32.47;;
83807;SDS011;73824;40.292;17.998;2023-12-20T03:19:35;61.30;;;33.33;;
83807;SDS011;73824;40.292;17.998;2023-12-20T03:22:00;67.03;;;34.17;;
83807;SDS011;73824;40.292;17.998;2023-12-20T03:24:26;60.22;;;33.22;;
83807;SDS011;73824;40.292;17.998;2023-12-20T03:26:52;60.87;;;33.23;;
83807;SDS011;73824;40.292;17.998;2023-12-20T03:29:18;64.90;;;33.58;;
83807;SDS011;73824;40.292;17.998;2023-12-20T03:31:43;60.47;;;33.87;;
83807;SDS011;73824;40.292;17.998;2023-12-20T03:34:09;61.83;;;33.73;;
83807;SDS011;73824;40.292;17.998;2023-12-20T03:36:34;62.35;;;35.78;;
83807;SDS011;73824;40.292;17.998;2023-12-20T03:39:00;61.63;;;34.33;;
83807;SDS011;73824;40.292;17.998;2023-12-20T03:41:25;61.37;;;32.97;;
83807;SDS011;73824;40.292;17.998;2023-12-20T03:43:51;68.30;;;37.30;;
83807;SDS011;73824;40.292;17.998;2023-12-20T03:46:16;62.67;;;34.93;;
83807;SDS011;73824;40.292;17.998;2023-12-20T03:48:42;74.47;;;38.33;;
83807;SDS011;73824;40.292;17.998;2023-12-20T03:51:07;66.13;;;36.23;;
83807;SDS011;73824;40.292;17.998;2023-12-20T03:53:33;61.85;;;33.50;;
83807;SDS011;73824;40.292;17.998;2023-12-20T03:55:58;60.17;;;31.60;;
83807;SDS011;73824;40.292;17.998;2023-12-20T03:58:24;56.33;;;29.77;;
83807;SDS011;73824;40.292;17.998;2023-12-20T04:00:50;61.30;;;30.75;;
83807;SDS011;73824;40.292;17.998;2023-12-20T04:03:15;56.87;;;28.50;;
83807;SDS011;73824;40.292;17.998;2023-12-20T04:05:40;61.30;;;31.03;;
83807;SDS011;73824;40.292;17.998;2023-12-20T04:08:06;59.90;;;31.73;;
83807;SDS011;73824;40.292;17.998;2023-12-20T04:10:32;58.65;;;30.65;;
83807;SDS011;73824;40.292;17.998;2023-12-20T04:12:58;54.08;;;30.77;;
83807;SDS011;73824;40.292;17.998;2023-12-20T04:15:23;55.00;;;30.27;;
83807;SDS011;73824;40.292;17.998;2023-12-20T04:17:49;54.07;;;28.97;;
83807;SDS011;73824;40.292;17.998;2023-12-20T04:20:14;55.93;;;28.33;;
83807;SDS011;73824;40.292;17.998;2023-12-20T04:22:40;51.83;;;28.67;;
83807;SDS011;73824;40.292;17.998;2023-12-20T04:25:05;50.97;;;27.17;;
83807;SDS011;73824;40.292;17.998;2023-12-20T04:27:31;56.33;;;28.40;;
83807;SDS011;73824;40.292;17.998;2023-12-20T04:29:56;50.47;;;26.02;;
83807;SDS011;73824;40.292;17.998;2023-12-20T04:32:22;44.97;;;24.10;;
83807;SDS011;73824;40.292;17.998;2023-12-20T04:34:47;40.63;;;23.27;;
83807;SDS011;73824;40.292;17.998;2023-12-20T04:37:13;43.17;;;22.10;;
83807;SDS011;73824;40.292;17.998;2023-12-20T04:39:38;39.67;;;20.73;;
83807;SDS011;73824;40.292;17.998;2023-12-20T04:42:05;38.17;;;21.00;;
83807;SDS011;73824;40.292;17.998;2023-12-20T04:44:31;39.50;;;20.08;;
83807;SDS011;73824;40.292;17.998;2023-12-20T04:46:56;38.30;;;21.67;;
83807;SDS011;73824;40.292;17.998;2023-12-20T04:49:22;43.53;;;22.20;;
83807;SDS011;73824;40.292;17.998;2023-12-20T04:51:48;41.80;;;21.70;;
83807;SDS011;73824;40.292;17.998;2023-12-20T04:54:14;40.25;;;19.42;;
83807;SDS011;73824;40.292;17.998;2023-12-20T04:56:39;40.13;;;20.17;;
83807;SDS011;73824;40.292;17.998;2023-12-20T04:59:06;36.40;;;19.20;;
83807;SDS011;73824;40.292;17.998;2023-12-20T05:01:32;40.90;;;19.97;;
83807;SDS011;73824;40.292;17.998;2023-12-20T05:03:57;38.85;;;20.30;;
83807;SDS011;73824;40.292;17.998;2023-12-20T05:06:23;38.95;;;19.95;;
83807;SDS011;73824;40.292;17.998;2023-12-20T05:08:49;51.58;;;27.00;;
83807;SDS011;73824;40.292;17.998;2023-12-20T05:11:15;51.53;;;26.23;;
83807;SDS011;73824;40.292;17.998;2023-12-20T05:13:41;48.47;;;25.07;;
83807;SDS011;73824;40.292;17.998;2023-12-20T05:16:07;46.20;;;25.00;;
83807;SDS011;73824;40.292;17.998;2023-12-20T05:18:34;44.15;;;23.38;;
83807;SDS011;73824;40.292;17.998;2023-12-20T05:20:59;42.60;;;23.15;;
83807;SDS011;73824;40.292;17.998;2023-12-20T05:23:25;52.38;;;28.08;;
83807;SDS011;73824;40.292;17.998;2023-12-20T05:25:50;63.80;;;31.83;;
83807;SDS011;73824;40.292;17.998;2023-12-20T05:28:16;62.63;;;32.08;;
83807;SDS011;73824;40.292;17.998;2023-12-20T05:30:42;62.60;;;31.27;;
83807;SDS011;73824;40.292;17.998;2023-12-20T05:33:08;61.85;;;33.00;;
83807;SDS011;73824;40.292;17.998;2023-12-20T05:35:34;61.75;;;34.92;;
83807;SDS011;73824;40.292;17.998;2023-12-20T05:38:00;71.27;;;39.77;;
83807;SDS011;73824;40.292;17.998;2023-12-20T05:40:25;63.43;;;37.23;;
83807;SDS011;73824;40.292;17.998;2023-12-20T05:42:51;64.00;;;37.60;;
83807;SDS011;73824;40.292;17.998;2023-12-20T05:45:16;64.60;;;35.97;;
83807;SDS011;73824;40.292;17.998;2023-12-20T05:47:42;65.57;;;34.63;;
83807;SDS011;73824;40.292;17.998;2023-12-20T05:50:07;66.25;;;35.05;;
83807;SDS011;73824;40.292;17.998;2023-12-20T05:52:34;56.07;;;29.53;;
83807;SDS011;73824;40.292;17.998;2023-12-20T05:54:59;52.28;;;22.52;;
83807;SDS011;73824;40.292;17.998;2023-12-20T05:57:26;56.53;;;24.30;;
83807;SDS011;73824;40.292;17.998;2023-12-20T05:59:52;58.13;;;22.75;;
83807;SDS011;73824;40.292;17.998;2023-12-20T06:02:18;55.45;;;23.67;;
83807;SDS011;73824;40.292;17.998;2023-12-20T06:04:44;56.10;;;24.70;;
83807;SDS011;73824;40.292;17.998;2023-12-20T06:07:13;72.32;;;32.83;;
83807;SDS011;73824;40.292;17.998;2023-12-20T06:09:39;66.25;;;28.70;;
83807;SDS011;73824;40.292;17.998;2023-12-20T06:12:05;66.70;;;27.60;;
83807;SDS011;73824;40.292;17.998;2023-12-20T06:14:33;83.75;;;35.92;;
83807;SDS011;73824;40.292;17.998;2023-12-20T06:16:59;72.43;;;31.60;;
83807;SDS011;73824;40.292;17.998;2023-12-20T06:19:26;71.03;;;28.70;;
83807;SDS011;73824;40.292;17.998;2023-12-20T06:21:51;66.43;;;33.05;;
83807;SDS011;73824;40.292;17.998;2023-12-20T06:24:17;75.40;;;32.73;;
83807;SDS011;73824;40.292;17.998;2023-12-20T06:26:42;71.90;;;29.60;;
83807;SDS011;73824;40.292;17.998;2023-12-20T06:29:08;64.13;;;27.55;;
83807;SDS011;73824;40.292;17.998;2023-12-20T06:31:33;57.43;;;26.53;;
83807;SDS011;73824;40.292;17.998;2023-12-20T06:33:59;56.57;;;24.73;;
83807;SDS011;73824;40.292;17.998;2023-12-20T06:36:25;59.30;;;25.15;;
83807;SDS011;73824;40.292;17.998;2023-12-20T06:38:51;56.33;;;25.23;;
83807;SDS011;73824;40.292;17.998;2023-12-20T06:41:17;58.73;;;25.77;;
83807;SDS011;73824;40.292;17.998;2023-12-20T06:43:43;60.50;;;26.70;;
83807;SDS011;73824;40.292;17.998;2023-12-20T06:46:09;57.33;;;26.42;;
83807;SDS011;73824;40.292;17.998;2023-12-20T06:48:34;56.47;;;25.23;;
83807;SDS011;73824;40.292;17.998;2023-12-20T06:51:00;54.27;;;25.50;;
83807;SDS011;73824;40.292;17.998;2023-12-20T06:53:29;55.83;;;26.95;;
83807;SDS011;73824;40.292;17.998;2023-12-20T06:55:55;57.83;;;26.02;;
83807;SDS011;73824;40.292;17.998;2023-12-20T06:58:23;55.45;;;26.55;;
83807;SDS011;73824;40.292;17.998;2023-12-20T07:00:50;49.08;;;24.45;;
83807;SDS011;73824;40.292;17.998;2023-12-20T07:03:16;45.57;;;21.37;;
83807;SDS011;73824;40.292;17.998;2023-12-20T07:05:42;47.88;;;21.67;;
83807;SDS011;73824;40.292;17.998;2023-12-20T07:08:08;48.72;;;21.80;;
83807;SDS011;73824;40.292;17.998;2023-12-20T07:10:34;51.87;;;26.60;;
83807;SDS011;73824;40.292;17.998;2023-12-20T07:13:02;54.70;;;27.13;;
83807;SDS011;73824;40.292;17.998;2023-12-20T07:15:28;51.17;;;25.48;;
83807;SDS011;73824;40.292;17.998;2023-12-20T07:17:54;59.45;;;29.75;;
83807;SDS011;73824;40.292;17.998;2023-12-20T07:20:20;57.27;;;27.20;;
83807;SDS011;73824;40.292;17.998;2023-12-20T07:22:45;43.38;;;20.52;;
83807;SDS011;73824;40.292;17.998;2023-12-20T07:25:11;37.22;;;17.13;;
83807;SDS011;73824;40.292;17.998;2023-12-20T07:27:36;40.30;;;19.37;;
83807;SDS011;73824;40.292;17.998;2023-12-20T07:30:02;39.47;;;18.37;;
83807;SDS011;73824;40.292;17.998;2023-12-20T07:32:27;36.53;;;18.33;;
83807;SDS011;73824;40.292;17.998;2023-12-20T07:34:53;36.43;;;18.97;;
83807;SDS011;73824;40.292;17.998;2023-12-20T07:37:19;33.80;;;17.90;;
83807;SDS011;73824;40.292;17.998;2023-12-20T07:39:46;38.15;;;21.10;;
83807;SDS011;73824;40.292;17.998;2023-12-20T07:42:11;35.13;;;22.00;;
83807;SDS011;73824;40.292;17.998;2023-12-20T07:44:37;39.63;;;24.60;;
83807;SDS011;73824;40.292;17.998;2023-12-20T07:47:02;41.63;;;25.52;;
83807;SDS011;73824;40.292;17.998;2023-12-20T07:49:30;39.90;;;25.33;;
83807;SDS011;73824;40.292;17.998;2023-12-20T07:51:55;40.65;;;26.52;;
83807;SDS011;73824;40.292;17.998;2023-12-20T07:54:21;43.30;;;29.17;;
83807;SDS011;73824;40.292;17.998;2023-12-20T07:56:46;53.10;;;34.58;;
83807;SDS011;73824;40.292;17.998;2023-12-20T07:59:12;50.50;;;33.40;;
83807;SDS011;73824;40.292;17.998;2023-12-20T08:01:38;55.30;;;32.83;;
83807;SDS011;73824;40.292;17.998;2023-12-20T08:04:03;53.38;;;31.15;;
83807;SDS011;73824;40.292;17.998;2023-12-20T08:06:29;49.47;;;28.83;;
83807;SDS011;73824;40.292;17.998;2023-12-20T08:08:54;60.57;;;33.67;;
83807;SDS011;73824;40.292;17.998;2023-12-20T08:11:20;62.10;;;33.50;;
83807;SDS011;73824;40.292;17.998;2023-12-20T08:13:45;64.35;;;36.08;;
83807;SDS011;73824;40.292;17.998;2023-12-20T08:16:11;52.57;;;30.73;;
83807;SDS011;73824;40.292;17.998;2023-12-20T08:18:38;45.60;;;28.15;;
83807;SDS011;73824;40.292;17.998;2023-12-20T08:21:04;44.50;;;27.52;;
83807;SDS011;73824;40.292;17.998;2023-12-20T08:23:32;45.25;;;27.65;;
83807;SDS011;73824;40.292;17.998;2023-12-20T08:25:58;42.97;;;28.90;;
83807;SDS011;73824;40.292;17.998;2023-12-20T08:28:24;39.70;;;26.73;;
83807;SDS011;73824;40.292;17.998;2023-12-20T08:30:49;40.33;;;30.20;;
83807;SDS011;73824;40.292;17.998;2023-12-20T08:33:18;38.50;;;29.42;;
83807;SDS011;73824;40.292;17.998;2023-12-20T08:35:44;38.90;;;29.57;;
83807;SDS011;73824;40.292;17.998;2023-12-20T08:38:09;37.43;;;29.00;;
83807;SDS011;73824;40.292;17.998;2023-12-20T08:40:35;43.22;;;35.53;;
83807;SDS011;73824;40.292;17.998;2023-12-20T08:43:00;43.33;;;34.75;;
83807;SDS011;73824;40.292;17.998;2023-12-20T08:45:26;36.20;;;30.87;;
83807;SDS011;73824;40.292;17.998;2023-12-20T08:47:51;32.30;;;28.48;;
83807;SDS011;73824;40.292;17.998;2023-12-20T08:50:17;30.10;;;24.63;;
83807;SDS011;73824;40.292;17.998;2023-12-20T08:52:43;28.20;;;22.33;;
83807;SDS011;73824;40.292;17.998;2023-12-20T08:55:08;25.70;;;21.50;;
83807;SDS011;73824;40.292;17.998;2023-12-20T08:57:35;20.42;;;17.08;;
83807;SDS011;73824;40.292;17.998;2023-12-20T09:00:01;19.67;;;16.53;;
83807;SDS011;73824;40.292;17.998;2023-12-20T09:02:26;20.10;;;16.60;;
83807;SDS011;73824;40.292;17.998;2023-12-20T09:04:52;20.43;;;17.97;;
83807;SDS011;73824;40.292;17.998;2023-12-20T09:07:24;20.77;;;15.87;;
83807;SDS011;73824;40.292;17.998;2023-12-20T09:09:51;21.92;;;16.67;;
83807;SDS011;73824;40.292;17.998;2023-12-20T09:12:17;18.42;;;14.85;;
83807;SDS011;73824;40.292;17.998;2023-12-20T09:14:44;13.73;;;11.52;;
83807;SDS011;73824;40.292;17.998;2023-12-20T09:17:12;15.32;;;13.63;;
83807;SDS011;73824;40.292;17.998;2023-12-20T09:19:38;21.23;;;16.57;;
83807;SDS011;73824;40.292;17.998;2023-12-20T09:22:05;24.05;;;19.60;;
83807;SDS011;73824;40.292;17.998;2023-12-20T09:24:31;20.85;;;17.27;;
83807;SDS011;73824;40.292;17.998;2023-12-20T09:26:56;17.35;;;14.38;;
83807;SDS011;73824;40.292;17.998;2023-12-20T09:29:22;14.52;;;11.05;;
83807;SDS011;73824;40.292;17.998;2023-12-20T09:31:48;13.77;;;9.20;;
83807;SDS011;73824;40.292;17.998;2023-12-20T09:34:15;12.47;;;8.50;;
83807;SDS011;73824;40.292;17.998;2023-12-20T09:36:41;14.05;;;8.38;;
83807;SDS011;73824;40.292;17.998;2023-12-20T09:39:11;13.80;;;8.10;;
83807;SDS011;73824;40.292;17.998;2023-12-20T09:41:43;14.90;;;8.45;;
83807;SDS011;73824;40.292;17.998;2023-12-20T09:44:15;16.42;;;9.80;;
83807;SDS011;73824;40.292;17.998;2023-12-20T09:46:44;18.57;;;9.67;;
83807;SDS011;73824;40.292;17.998;2023-12-20T09:49:11;18.77;;;9.75;;
83807;SDS011;73824;40.292;17.998;2023-12-20T09:51:37;18.70;;;10.52;;
83807;SDS011;73824;40.292;17.998;2023-12-20T09:54:03;18.10;;;9.05;;
83807;SDS011;73824;40.292;17.998;2023-12-20T09:56:29;14.88;;;8.70;;
83807;SDS011;73824;40.292;17.998;2023-12-20T09:58:55;13.77;;;7.40;;
83807;SDS011;73824;40.292;17.998;2023-12-20T10:01:21;13.63;;;6.90;;
83807;SDS011;73824;40.292;17.998;2023-12-20T10:03:48;15.18;;;7.35;;
83807;SDS011;73824;40.292;17.998;2023-12-20T10:06:16;15.45;;;7.15;;
83807;SDS011;73824;40.292;17.998;2023-12-20T10:08:42;14.00;;;7.17;;
83807;SDS011;73824;40.292;17.998;2023-12-20T10:11:07;17.08;;;7.95;;
83807;SDS011;73824;40.292;17.998;2023-12-20T10:13:33;16.35;;;8.57;;
83807;SDS011;73824;40.292;17.998;2023-12-20T10:15:59;14.33;;;6.83;;
83807;SDS011;73824;40.292;17.998;2023-12-20T10:18:24;16.63;;;7.75;;
83807;SDS011;73824;40.292;17.998;2023-12-20T10:20:50;18.43;;;9.27;;
83807;SDS011;73824;40.292;17.998;2023-12-20T10:23:15;15.20;;;7.60;;
83807;SDS011;73824;40.292;17.998;2023-12-20T10:25:41;15.37;;;7.70;;
83807;SDS011;73824;40.292;17.998;2023-12-20T10:28:13;14.80;;;6.60;;
83807;SDS011;73824;40.292;17.998;2023-12-20T10:30:42;12.02;;;6.20;;
83807;SDS011;73824;40.292;17.998;2023-12-20T10:33:08;12.60;;;5.68;;
83807;SDS011;73824;40.292;17.998;2023-12-20T10:35:38;10.35;;;4.85;;
83807;SDS011;73824;40.292;17.998;2023-12-20T10:38:04;8.68;;;4.07;;
83807;SDS011;73824;40.292;17.998;2023-12-20T10:40:31;11.68;;;4.18;;
83807;SDS011;73824;40.292;17.998;2023-12-20T10:43:01;9.80;;;3.90;;
83807;SDS011;73824;40.292;17.998;2023-12-20T10:45:27;15.98;;;4.70;;
83807;SDS011;73824;40.292;17.998;2023-12-20T10:47:53;14.20;;;5.50;;
83807;SDS011;73824;40.292;17.998;2023-12-20T10:50:19;11.30;;;5.47;;
83807;SDS011;73824;40.292;17.998;2023-12-20T10:52:46;11.30;;;5.33;;
83807;SDS011;73824;40.292;17.998;2023-12-20T10:55:13;10.07;;;3.22;;
83807;SDS011;73824;40.292;17.998;2023-12-20T10:57:38;10.10;;;4.85;;
83807;SDS011;73824;40.292;17.998;2023-12-20T11:00:05;10.00;;;4.05;;
83807;SDS011;73824;40.292;17.998;2023-12-20T11:02:39;10.43;;;3.87;;
83807;SDS011;73824;40.292;17.998;2023-12-20T11:05:06;8.63;;;3.17;;
83807;SDS011;73824;40.292;17.998;2023-12-20T11:07:37;11.15;;;4.75;;
83807;SDS011;73824;40.292;17.998;2023-12-20T11:10:19;12.60;;;4.60;;
83807;SDS011;73824;40.292;17.998;2023-12-20T11:15:36;11.97;;;5.63;;
83807;SDS011;73824;40.292;17.998;2023-12-20T11:18:02;14.20;;;6.63;;
83807;SDS011;73824;40.292;17.998;2023-12-20T11:20:38;14.73;;;6.97;;
83807;SDS011;73824;40.292;17.998;2023-12-20T11:23:05;11.52;;;5.13;;
83807;SDS011;73824;40.292;17.998;2023-12-20T11:25:47;13.70;;;7.05;;
83807;SDS011;73824;40.292;17.998;2023-12-20T11:28:23;11.83;;;5.07;;
83807;SDS011;73824;40.292;17.998;2023-12-20T11:30:53;11.73;;;4.70;;
83807;SDS011;73824;40.292;17.998;2023-12-20T11:33:23;10.57;;;4.82;;
83807;SDS011;73824;40.292;17.998;2023-12-20T11:35:50;12.18;;;5.07;;
83807;SDS011;73824;40.292;17.998;2023-12-20T11:38:16;13.32;;;5.03;;
83807;SDS011;73824;40.292;17.998;2023-12-20T11:40:42;11.07;;;4.00;;
83807;SDS011;73824;40.292;17.998;2023-12-20T11:43:09;9.77;;;3.63;;
83807;SDS011;73824;40.292;17.998;2023-12-20T11:45:34;10.60;;;3.87;;
83807;SDS011;73824;40.292;17.998;2023-12-20T11:48:01;10.23;;;4.70;;
83807;SDS011;73824;40.292;17.998;2023-12-20T11:50:27;11.13;;;5.78;;
83807;SDS011;73824;40.292;17.998;2023-12-20T11:52:55;12.77;;;5.25;;
83807;SDS011;73824;40.292;17.998;2023-12-20T11:55:22;9.20;;;3.28;;
83807;SDS011;73824;40.292;17.998;2023-12-20T11:57:49;10.95;;;4.78;;
83807;SDS011;73824;40.292;17.998;2023-12-20T12:00:15;9.90;;;3.53;;
83807;SDS011;73824;40.292;17.998;2023-12-20T12:02:41;9.43;;;4.50;;
83807;SDS011;73824;40.292;17.998;2023-12-20T12:05:07;8.43;;;3.60;;
83807;SDS011;73824;40.292;17.998;2023-12-20T12:07:36;13.32;;;6.03;;
83807;SDS011;73824;40.292;17.998;2023-12-20T12:10:02;12.63;;;5.38;;
83807;SDS011;73824;40.292;17.998;2023-12-20T12:12:28;11.85;;;4.95;;
83807;SDS011;73824;40.292;17.998;2023-12-20T12:14:55;11.43;;;4.10;;
83807;SDS011;73824;40.292;17.998;2023-12-20T12:17:22;9.18;;;3.45;;
83807;SDS011;73824;40.292;17.998;2023-12-20T12:19:48;10.40;;;3.20;;
83807;SDS011;73824;40.292;17.998;2023-12-20T12:22:14;12.25;;;5.38;;
83807;SDS011;73824;40.292;17.998;2023-12-20T12:24:45;13.85;;;5.93;;
83807;SDS011;73824;40.292;17.998;2023-12-20T12:27:11;12.90;;;5.80;;
83807;SDS011;73824;40.292;17.998;2023-12-20T12:29:41;13.88;;;6.40;;
83807;SDS011;73824;40.292;17.998;2023-12-20T12:32:24;21.75;;;10.30;;
83807;SDS011;73824;40.292;17.998;2023-12-20T12:34:50;19.30;;;8.18;;
83807;SDS011;73824;40.292;17.998;2023-12-20T12:37:16;22.63;;;10.87;;
83807;SDS011;73824;40.292;17.998;2023-12-20T12:39:41;14.27;;;7.38;;
83807;SDS011;73824;40.292;17.998;2023-12-20T12:42:07;11.27;;;5.60;;
83807;SDS011;73824;40.292;17.998;2023-12-20T12:44:32;21.00;;;11.87;;
83807;SDS011;73824;40.292;17.998;2023-12-20T12:46:58;14.10;;;6.10;;
83807;SDS011;73824;40.292;17.998;2023-12-20T12:49:24;14.43;;;7.33;;
83807;SDS011;73824;40.292;17.998;2023-12-20T12:51:49;10.73;;;4.60;;
83807;SDS011;73824;40.292;17.998;2023-12-20T12:54:15;9.45;;;3.67;;
83807;SDS011;73824;40.292;17.998;2023-12-20T12:56:43;10.00;;;3.83;;
83807;SDS011;73824;40.292;17.998;2023-12-20T12:59:10;13.20;;;6.15;;
83807;SDS011;73824;40.292;17.998;2023-12-20T13:01:36;15.27;;;8.02;;
83807;SDS011;73824;40.292;17.998;2023-12-20T13:04:01;18.93;;;10.23;;
83807;SDS011;73824;40.292;17.998;2023-12-20T13:06:29;15.95;;;8.70;;
83807;SDS011;73824;40.292;17.998;2023-12-20T13:08:55;12.65;;;5.72;;
83807;SDS011;73824;40.292;17.998;2023-12-20T13:11:20;14.50;;;6.43;;
83807;SDS011;73824;40.292;17.998;2023-12-20T13:13:46;11.07;;;4.38;;
83807;SDS011;73824;40.292;17.998;2023-12-20T13:16:12;10.03;;;3.97;;
83807;SDS011;73824;40.292;17.998;2023-12-20T13:18:38;10.77;;;4.55;;
83807;SDS011;73824;40.292;17.998;2023-12-20T13:21:07;12.73;;;4.88;;
83807;SDS011;73824;40.292;17.998;2023-12-20T13:23:33;10.87;;;5.33;;
83807;SDS011;73824;40.292;17.998;2023-12-20T13:25:58;13.27;;;6.20;;
83807;SDS011;73824;40.292;17.998;2023-12-20T13:28:24;13.07;;;5.50;;
83807;SDS011;73824;40.292;17.998;2023-12-20T13:30:49;10.10;;;3.85;;
83807;SDS011;73824;40.292;17.998;2023-12-20T13:33:15;9.10;;;3.17;;
83807;SDS011;73824;40.292;17.998;2023-12-20T13:35:40;10.40;;;4.37;;
83807;SDS011;73824;40.292;17.998;2023-12-20T13:38:06;8.82;;;3.65;;
83807;SDS011;73824;40.292;17.998;2023-12-20T13:40:32;15.77;;;7.37;;
83807;SDS011;73824;40.292;17.998;2023-12-20T13:42:58;10.02;;;3.92;;
83807;SDS011;73824;40.292;17.998;2023-12-20T13:45:23;11.03;;;4.13;;
83807;SDS011;73824;40.292;17.998;2023-12-20T13:47:50;9.95;;;4.07;;
83807;SDS011;73824;40.292;17.998;2023-12-20T13:50:16;11.77;;;5.33;;
83807;SDS011;73824;40.292;17.998;2023-12-20T13:52:41;12.82;;;5.45;;
83807;SDS011;73824;40.292;17.998;2023-12-20T13:55:07;12.50;;;6.43;;
83807;SDS011;73824;40.292;17.998;2023-12-20T13:57:33;17.65;;;9.43;;
83807;SDS011;73824;40.292;17.998;2023-12-20T13:59:59;16.50;;;8.97;;
83807;SDS011;73824;40.292;17.998;2023-12-20T14:02:25;9.45;;;4.38;;
83807;SDS011;73824;40.292;17.998;2023-12-20T14:04:52;13.15;;;6.82;;
83807;SDS011;73824;40.292;17.998;2023-12-20T14:07:17;13.37;;;7.53;;
83807;SDS011;73824;40.292;17.998;2023-12-20T14:09:43;14.32;;;6.25;;